Time;durP1;ratioP1;P1;durP2;ratioP2;P2;SDS_P1;SDS_P2;PMS_P1;PMS_P2;Temp;Humidity;BMP_temperature;BMP_pressure;BME280_temperature;BME280_humidity;BME280_pressure;Samples;Min_cycle;Max_cycle;Signal;HPM_P1;HPM_P2
2023/04/21 00:00:40;;;;;;;4.15;3.75;;;5.30;99.90;;;;;;5056564;28;20431;-73
2023/04/21 00:03:09;;;;;;;4.65;3.72;;;5.10;99.90;;;;;;5057449;28;20431;-73
2023/04/21 00:05:41;;;;;;;4.13;3.72;;;5.00;99.90;;;;;;5058655;28;21061;-72
2023/04/21 00:08:08;;;;;;;3.90;3.55;;;4.90;99.90;;;;;;5058434;28;21137;-73
2023/04/21 00:10:35;;;;;;;3.88;3.20;;;4.80;99.90;;;;;;5060344;28;20429;-73
2023/04/21 00:13:02;;;;;;;3.83;3.45;;;4.80;99.90;;;;;;5064174;28;20429;-73
2023/04/21 00:15:28;;;;;;;4.90;3.47;;;4.70;99.90;;;;;;5051866;28;20431;-73
2023/04/21 00:17:56;;;;;;;4.68;2.83;;;4.60;99.90;;;;;;5063327;28;20444;-73
2023/04/21 00:20:25;;;;;;;4.53;3.65;;;4.60;99.90;;;;;;5059651;28;20909;-73
2023/04/21 00:22:53;;;;;;;7.03;4.03;;;4.50;99.90;;;;;;5062421;28;20782;-73
2023/04/21 00:25:20;;;;;;;3.80;3.50;;;4.40;99.90;;;;;;5061922;28;20431;-73
2023/04/21 00:27:47;;;;;;;6.65;3.80;;;4.40;99.90;;;;;;5063902;28;20475;-73
2023/04/21 00:30:14;;;;;;;4.15;3.63;;;4.30;99.90;;;;;;5069217;28;20424;-73
2023/04/21 00:32:41;;;;;;;5.90;4.10;;;4.20;99.90;;;;;;5060888;28;20439;-73
2023/04/21 00:35:09;;;;;;;5.47;4.13;;;4.10;99.90;;;;;;5092454;28;20799;-73
2023/04/21 00:37:35;;;;;;;5.72;3.85;;;4.00;99.90;;;;;;5056051;28;20526;-73
2023/04/21 00:40:03;;;;;;;3.97;3.22;;;3.90;99.90;;;;;;5059504;28;20859;-73
2023/04/21 00:42:30;;;;;;;4.47;3.40;;;3.90;99.90;;;;;;5060589;28;20438;-73
2023/04/21 00:44:57;;;;;;;4.95;4.28;;;3.80;99.90;;;;;;5058632;28;20435;-73
2023/04/21 00:47:25;;;;;;;7.10;4.45;;;3.80;99.90;;;;;;5063389;28;20506;-73
2023/04/21 00:49:52;;;;;;;4.38;3.47;;;3.70;99.90;;;;;;5056664;28;20425;-73
2023/04/21 00:52:21;;;;;;;5.65;3.92;;;3.70;99.90;;;;;;5062854;28;20829;-73
2023/04/21 00:54:48;;;;;;;4.88;3.20;;;3.70;99.90;;;;;;5063485;28;20444;-73
2023/04/21 00:57:15;;;;;;;3.83;2.92;;;3.70;99.90;;;;;;5048580;28;20442;-72
2023/04/21 00:59:50;;;;;;;5.43;4.00;;;3.70;99.90;;;;;;5062452;28;20466;-72
2023/04/21 01:02:18;;;;;;;4.03;3.33;;;3.80;99.90;;;;;;5056404;28;20470;-72
2023/04/21 01:04:45;;;;;;;4.18;3.60;;;3.80;99.90;;;;;;5053469;28;20612;-72
2023/04/21 01:07:12;;;;;;;6.00;3.83;;;3.90;99.90;;;;;;5061264;28;20804;-72
2023/04/21 01:09:38;;;;;;;7.25;4.50;;;3.90;99.90;;;;;;5063475;28;20953;-72
2023/04/21 01:12:10;;;;;;;6.55;4.43;;;4.00;99.90;;;;;;5052825;28;20424;-72
2023/04/21 01:14:40;;;;;;;5.22;4.53;;;3.90;99.90;;;;;;5057779;28;20948;-72
2023/04/21 01:17:07;;;;;;;12.80;3.47;;;4.00;99.90;;;;;;5060681;28;20474;-72
2023/04/21 01:19:40;;;;;;;3.75;2.75;;;4.00;99.90;;;;;;5068504;28;20429;-72
2023/04/21 01:22:14;;;;;;;7.00;4.65;;;3.90;99.90;;;;;;5066817;28;20450;-72
2023/04/21 01:24:42;;;;;;;4.32;3.50;;;3.90;99.90;;;;;;5060802;28;20442;-72
2023/04/21 01:27:11;;;;;;;4.18;3.78;;;3.90;99.90;;;;;;5065733;28;20423;-72
2023/04/21 01:29:39;;;;;;;4.10;3.70;;;3.90;99.90;;;;;;5054189;28;20433;-72
2023/04/21 01:32:11;;;;;;;3.85;2.75;;;3.90;99.90;;;;;;5059230;28;21044;-72
2023/04/21 01:34:41;;;;;;;6.47;3.03;;;3.90;99.90;;;;;;5061948;28;20935;-72
2023/04/21 01:37:10;;;;;;;4.40;2.90;;;3.90;99.90;;;;;;5059453;28;20433;-72
2023/04/21 01:39:41;;;;;;;4.75;3.10;;;3.80;99.90;;;;;;5061808;28;20425;-72
2023/04/21 01:42:08;;;;;;;2.92;2.65;;;3.80;99.90;;;;;;5093020;27;21097;-72
2023/04/21 01:44:35;;;;;;;5.03;4.22;;;4.00;99.90;;;;;;5058769;28;20431;-72
2023/04/21 01:47:03;;;;;;;4.53;4.13;;;4.00;99.90;;;;;;5056854;28;20462;-72
2023/04/21 01:49:30;;;;;;;5.75;2.88;;;3.90;99.90;;;;;;5070496;28;20433;-72
2023/04/21 01:51:56;;;;;;;3.80;3.00;;;3.90;99.90;;;;;;5064089;28;20499;-72
2023/04/21 01:54:23;;;;;;;3.85;3.50;;;4.00;99.90;;;;;;5059394;28;20440;-72
2023/04/21 01:56:50;;;;;;;5.15;2.95;;;4.00;99.90;;;;;;5059016;28;22268;-72
2023/04/21 01:59:17;;;;;;;5.93;2.83;;;4.00;99.90;;;;;;5056828;28;20433;-72
2023/04/21 02:01:44;;;;;;;3.85;3.08;;;4.00;99.90;;;;;;5058968;28;21139;-72
2023/04/21 02:04:11;;;;;;;4.22;3.80;;;4.00;99.90;;;;;;5059835;28;20800;-72
2023/04/21 02:06:37;;;;;;;4.30;2.47;;;4.00;99.90;;;;;;5056416;28;20433;-72
2023/04/21 02:09:04;;;;;;;2.50;2.30;;;4.10;99.90;;;;;;5062511;28;20430;-72
2023/04/21 02:11:31;;;;;;;5.15;3.88;;;4.00;99.90;;;;;;5061386;28;20428;-73
2023/04/21 02:14:00;;;;;;;4.72;4.13;;;4.10;99.90;;;;;;5062274;28;20518;-73
2023/04/21 02:16:27;;;;;;;4.65;3.90;;;4.10;99.90;;;;;;5060637;28;20987;-73
2023/04/21 02:18:55;;;;;;;4.43;3.70;;;4.20;99.90;;;;;;5064524;28;20430;-73
2023/04/21 02:21:23;;;;;;;6.28;3.92;;;4.20;99.90;;;;;;5056706;28;20437;-73
2023/04/21 02:23:50;;;;;;;5.35;4.28;;;4.30;99.90;;;;;;5053266;28;20461;-72
2023/04/21 02:26:18;;;;;;;4.93;4.32;;;4.30;99.90;;;;;;5057182;28;20536;-72
2023/04/21 02:28:44;;;;;;;5.45;3.63;;;4.30;99.90;;;;;;5058452;28;21008;-71
2023/04/21 02:31:11;;;;;;;6.85;3.58;;;4.30;99.90;;;;;;5066290;28;20489;-71
2023/04/21 02:33:38;;;;;;;3.08;2.72;;;4.30;99.90;;;;;;5055772;28;20425;-71
2023/04/21 02:36:05;;;;;;;3.97;3.57;;;4.20;99.90;;;;;;5059287;28;20423;-72
2023/04/21 02:38:32;;;;;;;4.45;3.15;;;4.30;99.90;;;;;;5058190;28;20435;-72
2023/04/21 02:40:58;;;;;;;4.50;3.50;;;4.20;99.90;;;;;;5063479;28;20441;-72
2023/04/21 02:43:25;;;;;;;3.42;2.95;;;4.20;99.90;;;;;;5055886;28;20432;-72
2023/04/21 02:45:52;;;;;;;4.32;2.97;;;4.20;99.90;;;;;;5049280;28;20465;-72
2023/04/21 02:48:21;;;;;;;3.70;3.33;;;4.20;99.90;;;;;;5058941;28;20817;-72
2023/04/21 02:50:49;;;;;;;4.10;2.83;;;4.10;99.90;;;;;;5058113;28;20988;-72
2023/04/21 02:53:16;;;;;;;4.07;3.60;;;4.20;99.90;;;;;;5058621;28;20520;-72
2023/04/21 02:55:43;;;;;;;3.28;2.50;;;4.20;99.90;;;;;;5058407;28;20433;-72
2023/04/21 02:58:12;;;;;;;7.57;3.47;;;4.20;99.90;;;;;;5064693;28;20837;-72
2023/04/21 03:00:39;;;;;;;3.85;2.28;;;4.30;99.90;;;;;;5047319;28;20499;-72
2023/04/21 03:03:06;;;;;;;3.67;3.08;;;4.30;99.90;;;;;;5061464;28;20504;-72
2023/04/21 03:05:33;;;;;;;4.82;3.05;;;4.30;99.90;;;;;;5057340;28;20464;-72
2023/04/21 03:08:00;;;;;;;4.03;3.15;;;4.20;99.90;;;;;;5058474;28;20510;-71
2023/04/21 03:10:27;;;;;;;5.50;3.65;;;4.20;99.90;;;;;;5064047;28;20431;-72
2023/04/21 03:12:55;;;;;;;3.95;3.10;;;4.10;99.90;;;;;;5063251;28;20418;-72
2023/04/21 03:15:22;;;;;;;2.95;2.58;;;4.00;99.90;;;;;;5064844;28;20509;-72
2023/04/21 03:17:50;;;;;;;2.85;2.55;;;4.00;99.90;;;;;;5057803;28;20432;-72
2023/04/21 03:20:17;;;;;;;7.23;3.40;;;3.90;99.90;;;;;;5057358;28;20491;-72
2023/04/21 03:22:43;;;;;;;4.47;3.97;;;3.90;99.90;;;;;;5061224;28;20426;-72
2023/04/21 03:25:10;;;;;;;3.97;3.67;;;3.90;99.90;;;;;;5055978;28;20428;-72
2023/04/21 03:27:37;;;;;;;4.45;2.92;;;3.90;99.90;;;;;;5058393;28;20425;-72
2023/04/21 03:30:05;;;;;;;3.92;3.50;;;3.90;99.90;;;;;;5063019;28;20427;-72
2023/04/21 03:32:32;;;;;;;3.72;2.78;;;3.90;99.90;;;;;;5066828;28;20919;-72
2023/04/21 03:34:59;;;;;;;3.60;3.15;;;3.90;99.90;;;;;;5071981;28;20424;-72
2023/04/21 03:37:26;;;;;;;5.30;3.60;;;4.00;99.90;;;;;;5065916;28;20532;-72
2023/04/21 03:39:53;;;;;;;4.07;3.22;;;4.10;99.90;;;;;;5064412;28;20427;-72
2023/04/21 03:42:20;;;;;;;5.05;3.92;;;4.30;99.90;;;;;;5070490;28;20428;-71
2023/04/21 03:44:46;;;;;;;3.35;3.05;;;4.40;99.90;;;;;;5071095;28;20474;-72
2023/04/21 03:47:15;;;;;;;4.78;3.17;;;4.40;99.90;;;;;;5067899;28;20517;-71
2023/04/21 03:49:44;;;;;;;4.78;3.03;;;4.50;99.90;;;;;;5067642;28;20437;-71
2023/04/21 03:52:11;;;;;;;4.13;2.53;;;4.60;99.90;;;;;;5071872;28;20462;-71
2023/04/21 03:54:38;;;;;;;3.20;2.08;;;4.60;99.90;;;;;;5068548;28;20634;-71
2023/04/21 03:57:04;;;;;;;3.08;2.63;;;4.70;99.90;;;;;;5064439;28;20433;-71
2023/04/21 03:59:31;;;;;;;3.13;2.07;;;4.70;99.90;;;;;;5067391;28;20935;-71
2023/04/21 04:02:01;;;;;;;2.42;1.77;;;4.70;99.90;;;;;;5060205;28;20951;-71
2023/04/21 04:04:27;;;;;;;3.83;2.72;;;4.70;99.90;;;;;;5067642;28;20456;-71
2023/04/21 04:06:54;;;;;;;3.13;2.90;;;4.70;99.90;;;;;;5069037;28;20951;-71
2023/04/21 04:09:21;;;;;;;3.78;2.38;;;4.80;99.90;;;;;;5093091;27;20436;-71
2023/04/21 04:11:48;;;;;;;4.60;3.00;;;4.80;99.90;;;;;;5061640;28;20516;-71
2023/04/21 04:14:15;;;;;;;3.37;2.90;;;4.80;99.90;;;;;;5068387;28;20423;-71
2023/04/21 04:16:42;;;;;;;4.60;2.70;;;4.80;99.90;;;;;;5057689;28;21135;-70
2023/04/21 04:19:09;;;;;;;3.92;3.53;;;4.90;99.90;;;;;;5065369;28;20427;-71
2023/04/21 04:21:36;;;;;;;6.45;3.35;;;4.90;99.90;;;;;;5059757;28;20439;-71
2023/04/21 04:24:04;;;;;;;3.67;2.53;;;4.90;99.90;;;;;;5055715;28;20911;-71
2023/04/21 04:26:34;;;;;;;5.63;2.65;;;5.00;99.90;;;;;;5065470;28;20429;-71
2023/04/21 04:29:01;;;;;;;3.25;3.03;;;5.00;99.90;;;;;;5060952;28;20428;-71
2023/04/21 04:31:31;;;;;;;3.42;2.75;;;5.00;99.90;;;;;;5062861;28;20423;-71
2023/04/21 04:33:58;;;;;;;2.30;2.10;;;5.00;99.90;;;;;;5067086;28;20437;-71
2023/04/21 04:36:26;;;;;;;5.70;2.78;;;5.00;99.90;;;;;;5063735;28;20422;-71
2023/04/21 04:38:53;;;;;;;3.72;2.78;;;5.00;99.90;;;;;;5061703;28;20465;-71
2023/04/21 04:41:21;;;;;;;2.78;2.58;;;5.00;99.90;;;;;;5064568;28;20540;-71
2023/04/21 04:43:48;;;;;;;3.72;2.72;;;5.00;99.90;;;;;;5059583;28;20433;-71
2023/04/21 04:46:14;;;;;;;2.55;2.35;;;5.00;99.90;;;;;;5063741;28;20429;-71
2023/04/21 04:48:41;;;;;;;5.32;3.00;;;5.00;99.90;;;;;;5064057;28;21310;-71
2023/04/21 04:51:08;;;;;;;5.83;2.53;;;5.00;99.90;;;;;;5058040;28;20468;-71
2023/04/21 04:53:35;;;;;;;3.20;2.55;;;5.00;99.90;;;;;;5062391;28;20424;-71
2023/04/21 04:56:01;;;;;;;2.78;2.58;;;5.00;99.90;;;;;;5059001;28;20429;-71
2023/04/21 04:58:28;;;;;;;3.85;2.72;;;5.00;99.90;;;;;;5063331;28;20436;-72
2023/04/21 05:00:55;;;;;;;3.67;2.70;;;5.00;99.90;;;;;;5058259;28;20443;-74
2023/04/21 05:03:23;;;;;;;3.00;2.28;;;5.00;99.90;;;;;;5059272;28;20435;-74
2023/04/21 05:05:50;;;;;;;4.75;3.22;;;5.10;99.90;;;;;;5047687;28;20429;-73
2023/04/21 05:09:26;;;;;;;3.78;2.70;;;5.00;99.90;;;;;;5067503;27;20388;-72
2023/04/21 05:11:52;;;;;;;3.17;2.88;;;5.10;99.90;;;;;;5057526;28;20424;-71
2023/04/21 05:14:19;;;;;;;3.22;2.67;;;5.10;99.90;;;;;;5078636;22;20443;-77
2023/04/21 05:16:49;;;;;;;2.90;1.92;;;5.20;99.90;;;;;;5067902;28;20435;-78
2023/04/21 05:19:16;;;;;;;3.25;2.65;;;5.20;99.90;;;;;;5073090;28;20440;-78
2023/04/21 05:21:44;;;;;;;4.55;3.15;;;5.20;99.90;;;;;;5072902;28;20523;-77
2023/04/21 05:24:11;;;;;;;3.80;2.67;;;5.30;99.90;;;;;;5068791;28;20452;-77
2023/04/21 05:26:38;;;;;;;3.23;2.93;;;5.30;99.90;;;;;;5059373;28;20430;-78
2023/04/21 05:29:08;;;;;;;3.80;2.78;;;5.40;99.90;;;;;;5066319;28;20461;-78
2023/04/21 05:31:35;;;;;;;4.67;3.43;;;5.40;99.90;;;;;;5074637;28;20435;-78
2023/04/21 05:34:01;;;;;;;2.97;2.67;;;5.50;99.90;;;;;;5078450;28;20442;-78
2023/04/21 05:36:29;;;;;;;4.28;3.25;;;5.50;99.90;;;;;;5025758;28;20517;-77
2023/04/21 05:38:58;;;;;;;4.33;2.67;;;5.50;99.90;;;;;;5031763;28;21002;-76
2023/04/21 05:41:26;;;;;;;5.05;3.35;;;5.60;99.90;;;;;;5058479;28;20436;-76
2023/04/21 05:43:53;;;;;;;5.43;2.83;;;5.70;99.90;;;;;;4910220;28;20469;-76
2023/04/21 05:46:20;;;;;;;4.75;3.33;;;5.90;99.90;;;;;;5015107;28;20449;-76
2023/04/21 05:48:47;;;;;;;4.90;2.92;;;6.00;99.90;;;;;;5030320;28;20701;-76
2023/04/21 05:51:14;;;;;;;5.40;3.80;;;6.10;99.90;;;;;;5036118;28;20645;-76
2023/04/21 05:53:42;;;;;;;4.97;2.75;;;6.10;99.90;;;;;;5033909;28;20517;-76
2023/04/21 05:56:09;;;;;;;5.75;4.07;;;6.10;99.90;;;;;;5036976;28;20435;-76
2023/04/21 05:58:37;;;;;;;4.80;3.97;;;6.20;99.90;;;;;;5028821;28;20467;-76
2023/04/21 06:01:05;;;;;;;8.05;4.57;;;6.20;99.90;;;;;;5030300;28;20480;-76
2023/04/21 06:03:35;;;;;;;7.05;3.72;;;6.30;99.90;;;;;;5038249;28;20932;-76
2023/04/21 06:06:04;;;;;;;6.18;3.97;;;6.40;99.90;;;;;;5026465;28;20444;-76
2023/04/21 06:08:31;;;;;;;6.30;3.95;;;6.50;99.90;;;;;;5016629;28;20526;-76
2023/04/21 06:10:58;;;;;;;9.45;4.85;;;6.60;99.90;;;;;;5012636;28;20436;-76
2023/04/21 06:13:26;;;;;;;9.37;4.70;;;6.50;99.90;;;;;;5029509;28;21239;-76
2023/04/21 06:15:54;;;;;;;5.28;3.35;;;6.40;99.90;;;;;;5030826;28;20440;-76
2023/04/21 06:18:21;;;;;;;6.27;4.73;;;6.50;99.90;;;;;;5036052;28;20430;-74
2023/04/21 06:20:54;;;;;;;6.07;4.00;;;6.60;99.90;;;;;;5019498;28;20440;-75
2023/04/21 06:23:22;;;;;;;6.53;3.83;;;6.70;99.90;;;;;;5016480;28;20927;-75
2023/04/21 06:26:00;;;;;;;3.92;3.47;;;6.80;99.90;;;;;;5012856;28;20679;-75
2023/04/21 06:28:26;;;;;;;7.80;4.05;;;7.10;99.90;;;;;;5004740;28;20921;-76
2023/04/21 06:30:53;;;;;;;7.10;3.88;;;7.10;99.90;;;;;;4989089;28;20910;-76
2023/04/21 06:33:20;;;;;;;4.72;3.40;;;7.10;99.90;;;;;;5014824;28;20550;-76
2023/04/21 06:35:46;;;;;;;6.68;3.35;;;7.20;99.90;;;;;;5007287;28;20439;-77
2023/04/21 06:38:13;;;;;;;7.10;3.95;;;7.30;99.90;;;;;;4991734;28;20418;-77
2023/04/21 06:40:40;;;;;;;4.88;4.30;;;7.30;99.90;;;;;;4994787;28;20454;-77
2023/04/21 06:43:06;;;;;;;5.55;3.92;;;7.30;99.90;;;;;;4981447;28;20440;-77
2023/04/21 06:45:33;;;;;;;5.32;4.70;;;7.40;99.90;;;;;;4992810;28;20933;-77
2023/04/21 06:48:00;;;;;;;6.32;4.85;;;7.40;99.90;;;;;;4993363;28;20531;-77
2023/04/21 06:50:27;;;;;;;5.07;3.97;;;7.30;99.90;;;;;;4993464;28;20500;-76
2023/04/21 06:52:55;;;;;;;5.20;3.42;;;7.50;99.90;;;;;;4985372;28;20492;-76
2023/04/21 06:55:22;;;;;;;7.47;4.38;;;7.50;99.90;;;;;;4978634;28;20920;-77
2023/04/21 06:57:49;;;;;;;5.95;4.80;;;7.70;99.90;;;;;;4994852;28;20438;-77
2023/04/21 07:00:16;;;;;;;6.97;4.22;;;7.80;99.90;;;;;;4975336;28;20945;-76
2023/04/21 07:02:45;;;;;;;7.70;4.72;;;8.00;99.90;;;;;;4995327;28;20939;-76
2023/04/21 07:05:12;;;;;;;6.47;4.03;;;8.10;99.90;;;;;;4982209;28;20441;-76
2023/04/21 07:07:42;;;;;;;6.50;4.13;;;8.20;99.90;;;;;;4978721;28;20852;-76
2023/04/21 07:10:09;;;;;;;8.50;4.17;;;8.30;99.90;;;;;;4992587;28;20456;-76
2023/04/21 07:12:36;;;;;;;3.88;3.55;;;8.10;99.90;;;;;;4992603;28;20512;-76
2023/04/21 07:15:03;;;;;;;6.90;4.75;;;8.30;99.90;;;;;;5001938;28;20523;-72
2023/04/21 07:17:30;;;;;;;10.85;5.55;;;8.80;99.90;;;;;;4990390;28;20487;-72
2023/04/21 07:19:57;;;;;;;4.87;3.60;;;9.00;99.90;;;;;;4979173;28;20689;-72
2023/04/21 07:22:23;;;;;;;5.72;4.32;;;9.20;99.90;;;;;;4976168;28;20882;-72
2023/04/21 07:24:50;;;;;;;6.57;4.85;;;9.40;99.90;;;;;;4996705;28;20432;-72
2023/04/21 07:27:18;;;;;;;6.13;4.38;;;9.70;99.90;;;;;;4998146;28;20944;-71
2023/04/21 07:29:48;;;;;;;5.53;4.78;;;9.80;99.90;;;;;;4984875;28;20438;-72
2023/04/21 07:32:15;;;;;;;6.90;4.68;;;9.90;99.90;;;;;;5001308;28;20953;-71
2023/04/21 07:34:42;;;;;;;6.90;4.63;;;9.80;99.90;;;;;;4980032;28;20445;-72
2023/04/21 07:37:09;;;;;;;6.90;4.22;;;10.00;99.90;;;;;;4980703;28;20441;-71
2023/04/21 07:39:38;;;;;;;6.53;4.10;;;10.20;99.90;;;;;;4999523;28;20440;-72
2023/04/21 07:42:07;;;;;;;8.10;5.65;;;10.60;99.90;;;;;;4991988;28;20448;-72
2023/04/21 07:44:34;;;;;;;10.02;4.95;;;10.80;99.90;;;;;;4981191;28;20436;-72
2023/04/21 07:47:01;;;;;;;4.78;3.95;;;10.60;99.90;;;;;;4979018;28;20442;-72
2023/04/21 07:49:28;;;;;;;7.45;4.15;;;10.90;99.90;;;;;;4980172;28;20436;-72
2023/04/21 07:51:54;;;;;;;6.15;4.22;;;10.90;99.90;;;;;;4996212;28;20505;-71
2023/04/21 07:54:21;;;;;;;6.78;4.65;;;10.90;99.90;;;;;;4993084;28;20537;-71
2023/04/21 07:56:48;;;;;;;6.68;4.75;;;10.40;99.90;;;;;;4995250;28;20434;-71
2023/04/21 07:59:14;;;;;;;7.25;4.78;;;9.80;99.90;;;;;;4996396;28;20696;-71
2023/04/21 08:01:44;;;;;;;5.28;3.65;;;9.80;99.90;;;;;;4969181;28;20814;-72
2023/04/21 08:04:10;;;;;;;5.77;4.07;;;10.10;99.90;;;;;;4976006;28;20498;-71
2023/04/21 08:06:37;;;;;;;6.45;4.00;;;10.40;99.90;;;;;;4992969;28;20449;-71
2023/04/21 08:09:04;;;;;;;5.28;3.97;;;10.70;99.90;;;;;;4996016;28;20468;-71
2023/04/21 08:11:31;;;;;;;6.72;5.32;;;11.40;99.90;;;;;;5001225;28;20436;-69
2023/04/21 08:13:57;;;;;;;6.38;4.53;;;12.60;99.90;;;;;;4992027;28;20440;-69
2023/04/21 08:16:24;;;;;;;8.27;4.90;;;13.60;99.90;;;;;;4998957;28;20468;-69
2023/04/21 08:18:51;;;;;;;5.38;4.05;;;13.70;99.90;;;;;;4993787;28;20438;-69
2023/04/21 08:21:18;;;;;;;5.43;3.93;;;14.10;99.90;;;;;;5000092;28;20477;-69
2023/04/21 08:23:45;;;;;;;4.25;3.67;;;14.50;99.90;;;;;;4989924;28;20455;-69
2023/04/21 08:26:12;;;;;;;5.07;3.38;;;15.10;99.90;;;;;;4998810;28;20577;-69
2023/04/21 08:28:39;;;;;;;3.78;3.38;;;15.00;99.90;;;;;;4977827;28;20867;-70
2023/04/21 08:31:05;;;;;;;3.88;2.95;;;14.00;99.90;;;;;;5005217;28;20574;-69
2023/04/21 08:33:32;;;;;;;3.47;2.85;;;13.50;99.90;;;;;;4999100;28;20941;-70
2023/04/21 08:35:59;;;;;;;4.30;2.92;;;12.80;99.90;;;;;;4999441;28;20429;-69
2023/04/21 08:38:38;;;;;;;3.75;2.97;;;12.90;99.90;;;;;;4991990;28;20880;-70
2023/04/21 08:41:05;;;;;;;4.70;3.35;;;12.80;99.90;;;;;;4995849;28;20444;-69
2023/04/21 08:43:32;;;;;;;3.35;2.70;;;13.40;99.90;;;;;;4984980;28;20446;-70
2023/04/21 08:46:00;;;;;;;4.07;3.10;;;14.10;99.90;;;;;;4994125;28;20608;-70
2023/04/21 08:48:29;;;;;;;5.68;3.45;;;14.40;99.90;;;;;;4987067;28;20447;-69
2023/04/21 08:50:56;;;;;;;5.28;3.83;;;14.60;99.90;;;;;;4989222;28;20549;-70
2023/04/21 08:53:23;;;;;;;4.28;3.50;;;14.40;99.90;;;;;;4979534;28;20841;-70
2023/04/21 08:55:55;;;;;;;3.88;3.25;;;14.90;99.90;;;;;;4995248;28;21052;-70
2023/04/21 08:58:36;;;;;;;3.88;3.33;;;15.10;99.90;;;;;;4981332;28;20472;-70
2023/04/21 09:01:09;;;;;;;4.47;3.33;;;15.10;99.90;;;;;;4994937;28;20484;-70
2023/04/21 09:03:36;;;;;;;5.30;3.55;;;15.10;99.90;;;;;;4999626;28;20444;-71
2023/04/21 09:06:06;;;;;;;3.47;2.95;;;15.30;99.90;;;;;;4997985;28;20947;-70
2023/04/21 09:08:37;;;;;;;6.93;3.88;;;15.20;99.90;;;;;;4989435;28;20438;-70
2023/04/21 09:11:04;;;;;;;2.53;2.33;;;15.10;99.90;;;;;;4993140;28;20848;-70
2023/04/21 09:13:32;;;;;;;3.05;2.75;;;15.60;99.90;;;;;;4980127;28;20434;-70
2023/04/21 09:16:02;;;;;;;4.03;3.05;;;16.10;99.90;;;;;;4995048;28;20995;-70
2023/04/21 09:18:34;;;;;;;3.83;3.47;;;16.40;99.90;;;;;;4980799;28;20913;-70
2023/04/21 09:21:09;;;;;;;5.65;3.75;;;16.30;99.90;;;;;;4996471;28;20474;-70
2023/04/21 09:23:47;;;;;;;3.53;3.22;;;16.30;99.90;;;;;;4991242;28;21010;-71
2023/04/21 09:26:15;;;;;;;3.63;3.00;;;16.10;99.90;;;;;;4981537;28;20437;-70
2023/04/21 09:28:46;;;;;;;5.53;3.42;;;16.60;99.90;;;;;;4995376;28;20459;-70
2023/04/21 09:31:23;;;;;;;4.22;3.78;;;17.20;99.90;;;;;;5002140;28;20481;-70
2023/04/21 09:33:56;;;;;;;4.20;3.20;;;16.90;99.90;;;;;;4993053;28;20776;-70
2023/04/21 09:36:28;;;;;;;2.60;2.40;;;17.10;99.90;;;;;;4994300;28;20474;-71
2023/04/21 09:39:03;;;;;;;3.60;2.40;;;17.10;99.90;;;;;;4992599;28;20442;-70
2023/04/21 09:41:36;;;;;;;5.10;3.57;;;17.40;99.90;;;;;;4995739;28;20443;-71
2023/04/21 09:44:05;;;;;;;6.57;3.10;;;17.50;99.90;;;;;;4999879;28;20449;-70
2023/04/21 09:46:34;;;;;;;4.60;3.38;;;17.30;99.90;;;;;;4999467;28;20797;-71
2023/04/21 09:49:02;;;;;;;2.90;2.70;;;16.80;99.90;;;;;;4983507;28;20434;-70
2023/04/21 09:51:30;;;;;;;3.35;3.08;;;16.70;99.90;;;;;;4978340;28;20429;-70
2023/04/21 09:54:19;;;;;;;3.33;3.03;;;17.00;99.90;;;;;;4987863;28;20424;-71
2023/04/21 09:56:53;;;;;;;3.03;2.67;;;17.60;99.90;;;;;;4981822;28;20428;-70
2023/04/21 09:59:26;;;;;;;4.05;2.92;;;17.40;99.90;;;;;;4979861;28;20531;-70
2023/04/21 10:01:54;;;;;;;3.67;2.88;;;17.10;99.90;;;;;;4993333;28;20468;-71
2023/04/21 10:04:22;;;;;;;5.53;4.03;;;16.90;99.90;;;;;;4994051;28;20490;-71
2023/04/21 10:06:51;;;;;;;6.17;4.17;;;17.00;99.90;;;;;;4997430;28;20472;-71
2023/04/21 10:09:22;;;;;;;4.78;3.75;;;16.10;99.90;;;;;;4987831;28;20434;-71
2023/04/21 10:11:50;;;;;;;4.20;3.35;;;16.50;99.90;;;;;;4996487;28;20425;-70
2023/04/21 10:14:17;;;;;;;4.07;3.42;;;16.10;99.90;;;;;;4996683;28;20434;-71
2023/04/21 10:16:55;;;;;;;6.82;3.63;;;16.20;99.90;;;;;;4997987;28;20730;-71
2023/04/21 10:19:26;;;;;;;7.43;3.63;;;16.70;99.90;;;;;;4997478;28;20448;-71
2023/04/21 10:21:56;;;;;;;4.40;3.37;;;16.70;99.90;;;;;;4993825;28;20519;-70
2023/04/21 10:24:23;;;;;;;3.63;3.30;;;16.20;99.90;;;;;;4981683;28;20463;-70
2023/04/21 10:26:50;;;;;;;4.17;3.77;;;16.80;99.90;;;;;;4978896;28;20519;-71
2023/04/21 10:29:32;;;;;;;4.15;3.03;;;16.60;99.90;;;;;;4982772;28;20987;-70
2023/04/21 10:32:39;;;;;;;4.63;3.40;;;17.00;99.90;;;;;;4993432;28;20802;-70
2023/04/21 10:35:08;;;;;;;4.03;3.55;;;17.30;99.90;;;;;;4995485;28;20445;-70
2023/04/21 10:37:35;;;;;;;6.50;3.47;;;17.20;99.90;;;;;;4984072;28;20432;-70
2023/04/21 10:40:08;;;;;;;4.43;3.50;;;17.40;99.90;;;;;;4996801;28;20912;-70
2023/04/21 10:42:38;;;;;;;5.97;3.50;;;17.40;99.90;;;;;;4997275;28;20916;-71
2023/04/21 10:45:07;;;;;;;7.30;3.20;;;18.30;99.90;;;;;;4977625;28;20486;-72
2023/04/21 10:47:43;;;;;;;3.20;2.90;;;18.50;99.90;;;;;;4980123;28;20449;-71
2023/04/21 10:50:11;;;;;;;4.93;3.15;;;19.70;99.90;;;;;;4993757;28;20437;-71
2023/04/21 10:52:38;;;;;;;4.47;3.27;;;19.90;99.90;;;;;;5002766;28;20460;-71
2023/04/21 10:55:09;;;;;;;5.70;3.70;;;19.80;99.90;;;;;;4984527;28;20439;-72
2023/04/21 10:57:36;;;;;;;6.93;3.63;;;19.40;99.90;;;;;;4995630;28;20430;-70
2023/04/21 11:00:05;;;;;;;4.00;3.67;;;18.80;99.90;;;;;;4998892;28;20974;-71
2023/04/21 11:02:34;;;;;;;3.40;3.10;;;19.30;99.90;;;;;;4987477;28;20452;-71
2023/04/21 11:05:06;;;;;;;4.05;3.50;;;19.30;99.90;;;;;;5003114;28;20436;-70
2023/04/21 11:07:33;;;;;;;4.22;3.40;;;18.30;99.90;;;;;;4983075;28;20584;-70
2023/04/21 11:10:04;;;;;;;4.57;3.50;;;18.70;99.90;;;;;;5006005;28;21087;-70
2023/04/21 11:12:34;;;;;;;5.18;3.28;;;19.30;99.90;;;;;;4996381;28;21036;-70
2023/04/21 11:15:06;;;;;;;4.40;3.20;;;19.00;99.90;;;;;;4996229;28;20445;-70
2023/04/21 11:17:38;;;;;;;3.15;2.85;;;19.00;99.90;;;;;;4999517;28;20448;-70
2023/04/21 11:20:09;;;;;;;4.50;3.22;;;18.70;99.90;;;;;;4994305;28;20538;-70
2023/04/21 11:22:37;;;;;;;5.97;3.80;;;18.20;99.90;;;;;;4979573;28;20569;-71
2023/04/21 11:25:05;;;;;;;4.85;3.55;;;19.00;99.90;;;;;;4977262;28;20441;-71
2023/04/21 11:27:32;;;;;;;5.40;4.32;;;18.60;99.90;;;;;;4977149;28;20446;-71
2023/04/21 11:30:02;;;;;;;3.40;3.05;;;19.30;99.90;;;;;;4990204;28;20783;-71
2023/04/21 11:32:29;;;;;;;3.22;2.92;;;19.60;99.90;;;;;;5001248;28;20490;-71
2023/04/21 11:34:56;;;;;;;3.70;3.40;;;17.90;99.90;;;;;;4996387;28;20428;-70
2023/04/21 11:37:27;;;;;;;3.88;3.50;;;17.70;99.90;;;;;;4995149;28;20444;-70
2023/04/21 11:39:58;;;;;;;3.92;3.20;;;17.50;99.90;;;;;;4998512;28;20448;-71
2023/04/21 11:42:26;;;;;;;3.78;2.58;;;18.00;99.90;;;;;;4999398;28;20436;-71
2023/04/21 11:44:55;;;;;;;4.97;3.73;;;18.60;99.90;;;;;;5002657;28;20430;-70
2023/04/21 11:47:24;;;;;;;9.07;2.97;;;17.90;99.90;;;;;;4987363;28;20468;-71
2023/04/21 11:50:00;;;;;;;4.38;2.85;;;17.80;99.90;;;;;;4993143;28;20437;-71
2023/04/21 11:52:36;;;;;;;3.90;3.10;;;17.10;99.90;;;;;;4998319;28;20879;-71
2023/04/21 11:55:15;;;;;;;3.55;2.97;;;17.10;99.90;;;;;;4992656;28;20457;-70
2023/04/21 11:57:44;;;;;;;5.13;3.42;;;17.30;99.90;;;;;;4975673;28;20432;-71
2023/04/21 12:00:14;;;;;;;6.22;4.15;;;17.60;99.90;;;;;;4995825;28;20440;-70
2023/04/21 12:02:42;;;;;;;5.43;4.22;;;17.50;99.90;;;;;;4983326;28;20990;-70
2023/04/21 12:05:11;;;;;;;5.30;3.63;;;16.80;99.90;;;;;;4990324;28;20440;-71
2023/04/21 12:07:41;;;;;;;3.40;2.95;;;16.80;99.90;;;;;;4977358;28;20439;-72
2023/04/21 12:10:28;;;;;;;4.15;3.10;;;16.70;99.90;;;;;;5002583;28;20438;-71
2023/04/21 12:12:56;;;;;;;6.50;3.40;;;17.70;99.90;;;;;;4979425;28;20727;-71
2023/04/21 12:15:22;;;;;;;4.05;3.00;;;17.50;99.90;;;;;;4992862;28;20527;-71
2023/04/21 12:17:52;;;;;;;5.30;3.53;;;18.10;99.90;;;;;;4994011;28;21020;-71
2023/04/21 12:20:23;;;;;;;4.30;3.07;;;17.70;99.90;;;;;;4990542;28;20438;-72
2023/04/21 12:22:51;;;;;;;3.83;3.35;;;17.70;99.90;;;;;;4995357;28;20521;-72
2023/04/21 12:25:18;;;;;;;4.32;3.40;;;17.70;99.90;;;;;;4983043;28;20488;-72
2023/04/21 12:27:50;;;;;;;5.05;3.05;;;17.50;99.90;;;;;;4976993;28;20462;-72
2023/04/21 12:30:18;;;;;;;6.55;3.30;;;17.40;99.90;;;;;;4975142;28;20501;-72
2023/04/21 12:32:46;;;;;;;2.75;2.35;;;17.60;99.90;;;;;;4995150;28;20928;-72
2023/04/21 12:35:16;;;;;;;6.00;2.60;;;17.60;99.90;;;;;;4985299;28;20539;-72
2023/04/21 12:37:44;;;;;;;3.47;3.17;;;17.20;99.90;;;;;;4997140;28;20534;-72
2023/04/21 12:40:10;;;;;;;5.45;3.88;;;17.90;99.90;;;;;;4973695;28;20542;-71
2023/04/21 12:42:37;;;;;;;4.22;3.17;;;18.50;99.90;;;;;;4994291;28;20459;-71
2023/04/21 12:45:08;;;;;;;7.85;3.72;;;19.30;99.90;;;;;;4989284;28;20450;-72
2023/04/21 12:47:36;;;;;;;9.88;3.28;;;19.20;99.90;;;;;;4994333;28;20798;-72
2023/04/21 12:50:03;;;;;;;4.68;3.03;;;19.60;99.90;;;;;;4985131;28;20511;-72
2023/04/21 12:52:32;;;;;;;3.92;2.97;;;19.50;99.90;;;;;;4997530;28;20428;-72
2023/04/21 12:54:59;;;;;;;6.68;3.47;;;18.90;99.90;;;;;;4992392;28;20639;-72
2023/04/21 12:57:26;;;;;;;3.35;3.08;;;19.00;99.90;;;;;;4981758;28;20926;-72
2023/04/21 12:59:52;;;;;;;3.10;2.80;;;19.00;99.90;;;;;;4993095;28;20433;-70